Aérodrome :
LOGIN :

S'inscrire | Disclaimer

   EN    FR    IT 

 










Légende :    VFR   VFR Marginal   IFR   IFR Intensif   IFR Très Intensif
Visi : 
Plafond : 
>= 8 km
>= 3000ft
5 à 8 km
1000 à 3000 ft
1500m à 5 km
500 à 1000 ft
800 à 1500m
200 à 500 ft
< 800m
< 200 ft
Symboles :   Orages  Brouillard  Fortes neiges  Fortes précipitations  Vent > 20 kt
SIGMETs :   Divers  Orages  Givrage  Turbulence  Onde Orograph.  Cendres Volcan.







- Altitude de l'aérodrome : 24 ft
- Code IATA : SGD


EKSB - Sonderborg

DERNIER METAR :
  • 101750Z 31016KT 9999 FEW045 06/02 Q1008

METARs EXPIRÉS :
  • 101720Z 30016KT 9999 FEW045 06/02 Q1008
  • 101651Z 30016KT 9999 FEW045 06/02 Q1008
  • 101627Z 30013KT 9999 SCT045 06/03 Q1008
  • 101550Z 30016KT 7000 -SHRA FEW020TCU BKN030 06/03 Q1007
  • 101520Z 32020KT 6000 SHRA SCT015TCU BKN020 06/03 Q1007

TAF TAF EKSB
Valide du 10 à 18h jusqu'au 10 à 23h UTC


101739Z 1018/1023 30015KT 9999 FEW040
Pas de NOTAMs connus pour ce terrain.



MET'MAP, la Météo Aéronautique d'un coup d'oeil ! - Copyright ORBIFLY Décembre 2007 - Disclaimer

ORBIFLY MET'MAP TEAM :

Programmation & Développement : Alexandra Zaïnal
Conception & Développement : Baudouin d'Aumeries
Co-Programmation & Développement : Marc-Olivier Méhu
Soutien technique & logistique : Manuel Goepfert

Contact : metmap@orbifly.com




SOURCES & CREDITS :

   NOAA